sensor_id;sensor_type;location;lat;lon;timestamp;P1;durP1;ratioP1;P2;durP2;ratioP2
81656;SDS011;71067;51.482;-0.580;2024-03-17T00:00:59;6.60;;;3.00;;
81656;SDS011;71067;51.482;-0.580;2024-03-17T00:03:28;9.73;;;3.55;;
81656;SDS011;71067;51.482;-0.580;2024-03-17T00:05:55;6.47;;;3.53;;
81656;SDS011;71067;51.482;-0.580;2024-03-17T00:08:24;8.93;;;3.53;;
81656;SDS011;71067;51.482;-0.580;2024-03-17T00:10:50;5.90;;;3.03;;
81656;SDS011;71067;51.482;-0.580;2024-03-17T00:13:16;6.15;;;3.90;;
81656;SDS011;71067;51.482;-0.580;2024-03-17T00:15:42;5.68;;;3.38;;
81656;SDS011;71067;51.482;-0.580;2024-03-17T00:18:07;9.07;;;3.80;;
81656;SDS011;71067;51.482;-0.580;2024-03-17T00:20:33;6.22;;;3.70;;
81656;SDS011;71067;51.482;-0.580;2024-03-17T00:22:59;7.65;;;3.78;;
81656;SDS011;71067;51.482;-0.580;2024-03-17T00:25:24;4.78;;;3.50;;
81656;SDS011;71067;51.482;-0.580;2024-03-17T00:27:49;6.77;;;3.83;;
81656;SDS011;71067;51.482;-0.580;2024-03-17T00:30:15;6.53;;;3.60;;
81656;SDS011;71067;51.482;-0.580;2024-03-17T00:32:41;5.57;;;3.47;;
81656;SDS011;71067;51.482;-0.580;2024-03-17T00:35:07;7.07;;;3.67;;
81656;SDS011;71067;51.482;-0.580;2024-03-17T00:37:34;6.90;;;3.97;;
81656;SDS011;71067;51.482;-0.580;2024-03-17T00:40:01;6.82;;;3.60;;
81656;SDS011;71067;51.482;-0.580;2024-03-17T00:42:27;6.15;;;3.15;;
81656;SDS011;71067;51.482;-0.580;2024-03-17T00:44:52;6.88;;;3.30;;
81656;SDS011;71067;51.482;-0.580;2024-03-17T00:47:18;6.20;;;3.60;;
81656;SDS011;71067;51.482;-0.580;2024-03-17T00:49:43;9.93;;;3.83;;
81656;SDS011;71067;51.482;-0.580;2024-03-17T00:52:08;6.35;;;3.70;;
81656;SDS011;71067;51.482;-0.580;2024-03-17T00:54:34;6.75;;;3.55;;
81656;SDS011;71067;51.482;-0.580;2024-03-17T00:56:59;4.85;;;3.55;;
81656;SDS011;71067;51.482;-0.580;2024-03-17T00:59:25;5.45;;;3.33;;
81656;SDS011;71067;51.482;-0.580;2024-03-17T01:01:51;5.43;;;3.38;;
81656;SDS011;71067;51.482;-0.580;2024-03-17T01:04:16;5.93;;;3.53;;
81656;SDS011;71067;51.482;-0.580;2024-03-17T01:06:41;8.88;;;4.18;;
81656;SDS011;71067;51.482;-0.580;2024-03-17T01:09:07;7.82;;;4.30;;
81656;SDS011;71067;51.482;-0.580;2024-03-17T01:11:33;9.98;;;4.57;;
81656;SDS011;71067;51.482;-0.580;2024-03-17T01:13:59;8.70;;;4.40;;
81656;SDS011;71067;51.482;-0.580;2024-03-17T01:16:24;8.15;;;4.70;;
81656;SDS011;71067;51.482;-0.580;2024-03-17T01:18:49;9.63;;;4.63;;
81656;SDS011;71067;51.482;-0.580;2024-03-17T01:21:15;8.82;;;4.95;;
81656;SDS011;71067;51.482;-0.580;2024-03-17T01:23:40;10.45;;;5.20;;
81656;SDS011;71067;51.482;-0.580;2024-03-17T01:26:05;12.10;;;5.07;;
81656;SDS011;71067;51.482;-0.580;2024-03-17T01:28:31;9.77;;;5.38;;
81656;SDS011;71067;51.482;-0.580;2024-03-17T01:30:56;11.52;;;5.00;;
81656;SDS011;71067;51.482;-0.580;2024-03-17T01:33:21;14.43;;;5.95;;
81656;SDS011;71067;51.482;-0.580;2024-03-17T01:35:47;11.98;;;5.90;;
81656;SDS011;71067;51.482;-0.580;2024-03-17T01:38:13;10.10;;;5.72;;
81656;SDS011;71067;51.482;-0.580;2024-03-17T01:40:38;13.63;;;6.40;;
81656;SDS011;71067;51.482;-0.580;2024-03-17T01:43:03;13.80;;;6.78;;
81656;SDS011;71067;51.482;-0.580;2024-03-17T01:45:30;14.27;;;6.60;;
81656;SDS011;71067;51.482;-0.580;2024-03-17T01:47:59;11.70;;;6.25;;
81656;SDS011;71067;51.482;-0.580;2024-03-17T01:50:28;13.30;;;6.50;;
81656;SDS011;71067;51.482;-0.580;2024-03-17T01:52:59;13.00;;;5.60;;
81656;SDS011;71067;51.482;-0.580;2024-03-17T01:55:27;12.40;;;6.10;;
81656;SDS011;71067;51.482;-0.580;2024-03-17T01:57:53;9.07;;;5.40;;
81656;SDS011;71067;51.482;-0.580;2024-03-17T02:00:19;14.70;;;7.15;;
81656;SDS011;71067;51.482;-0.580;2024-03-17T02:02:45;13.63;;;6.65;;
81656;SDS011;71067;51.482;-0.580;2024-03-17T02:05:10;14.88;;;7.68;;
81656;SDS011;71067;51.482;-0.580;2024-03-17T02:07:36;14.05;;;6.90;;
81656;SDS011;71067;51.482;-0.580;2024-03-17T02:10:01;18.88;;;8.13;;
81656;SDS011;71067;51.482;-0.580;2024-03-17T02:12:30;20.60;;;8.45;;
81656;SDS011;71067;51.482;-0.580;2024-03-17T02:14:59;15.02;;;8.45;;
81656;SDS011;71067;51.482;-0.580;2024-03-17T02:17:24;17.30;;;7.50;;
81656;SDS011;71067;51.482;-0.580;2024-03-17T02:19:50;19.95;;;8.48;;
81656;SDS011;71067;51.482;-0.580;2024-03-17T02:22:17;13.32;;;7.88;;
81656;SDS011;71067;51.482;-0.580;2024-03-17T02:24:43;20.05;;;9.60;;
81656;SDS011;71067;51.482;-0.580;2024-03-17T02:27:08;23.33;;;9.00;;
81656;SDS011;71067;51.482;-0.580;2024-03-17T02:29:34;19.10;;;9.18;;
81656;SDS011;71067;51.482;-0.580;2024-03-17T02:32:02;16.55;;;8.85;;
81656;SDS011;71067;51.482;-0.580;2024-03-17T02:34:32;18.75;;;9.20;;
81656;SDS011;71067;51.482;-0.580;2024-03-17T02:36:58;18.17;;;9.20;;
81656;SDS011;71067;51.482;-0.580;2024-03-17T02:39:24;22.77;;;8.80;;
81656;SDS011;71067;51.482;-0.580;2024-03-17T02:42:05;19.48;;;9.48;;
81656;SDS011;71067;51.482;-0.580;2024-03-17T02:44:32;24.38;;;10.00;;
81656;SDS011;71067;51.482;-0.580;2024-03-17T02:46:58;19.05;;;9.63;;
81656;SDS011;71067;51.482;-0.580;2024-03-17T02:49:25;24.00;;;10.52;;
81656;SDS011;71067;51.482;-0.580;2024-03-17T02:51:52;22.60;;;10.32;;
81656;SDS011;71067;51.482;-0.580;2024-03-17T02:54:19;21.92;;;10.00;;
81656;SDS011;71067;51.482;-0.580;2024-03-17T02:56:45;21.60;;;10.10;;
81656;SDS011;71067;51.482;-0.580;2024-03-17T02:59:11;22.85;;;10.10;;
81656;SDS011;71067;51.482;-0.580;2024-03-17T03:01:36;21.08;;;10.85;;
81656;SDS011;71067;51.482;-0.580;2024-03-17T03:04:02;22.77;;;10.57;;
81656;SDS011;71067;51.482;-0.580;2024-03-17T03:06:27;22.35;;;10.02;;
81656;SDS011;71067;51.482;-0.580;2024-03-17T03:08:52;21.02;;;9.93;;
81656;SDS011;71067;51.482;-0.580;2024-03-17T03:11:18;24.83;;;10.00;;
81656;SDS011;71067;51.482;-0.580;2024-03-17T03:13:43;22.48;;;10.52;;
81656;SDS011;71067;51.482;-0.580;2024-03-17T03:16:10;21.63;;;9.88;;
81656;SDS011;71067;51.482;-0.580;2024-03-17T03:18:36;21.50;;;10.25;;
81656;SDS011;71067;51.482;-0.580;2024-03-17T03:21:03;20.30;;;9.77;;
81656;SDS011;71067;51.482;-0.580;2024-03-17T03:23:28;23.52;;;10.30;;
81656;SDS011;71067;51.482;-0.580;2024-03-17T03:25:55;21.55;;;10.68;;
81656;SDS011;71067;51.482;-0.580;2024-03-17T03:28:21;23.88;;;10.65;;
81656;SDS011;71067;51.482;-0.580;2024-03-17T03:30:47;21.70;;;9.50;;
81656;SDS011;71067;51.482;-0.580;2024-03-17T03:33:13;22.88;;;10.00;;
81656;SDS011;71067;51.482;-0.580;2024-03-17T03:35:38;18.88;;;9.48;;
81656;SDS011;71067;51.482;-0.580;2024-03-17T03:38:04;17.13;;;9.75;;
81656;SDS011;71067;51.482;-0.580;2024-03-17T03:40:30;20.92;;;9.55;;
81656;SDS011;71067;51.482;-0.580;2024-03-17T03:42:56;22.10;;;10.32;;
81656;SDS011;71067;51.482;-0.580;2024-03-17T03:45:22;22.70;;;9.68;;
81656;SDS011;71067;51.482;-0.580;2024-03-17T03:47:48;20.40;;;9.98;;
81656;SDS011;71067;51.482;-0.580;2024-03-17T03:50:15;20.48;;;9.35;;
81656;SDS011;71067;51.482;-0.580;2024-03-17T03:52:42;20.50;;;9.98;;
81656;SDS011;71067;51.482;-0.580;2024-03-17T03:55:08;17.98;;;8.80;;
81656;SDS011;71067;51.482;-0.580;2024-03-17T03:57:40;16.70;;;8.60;;
81656;SDS011;71067;51.482;-0.580;2024-03-17T04:00:07;20.88;;;9.32;;
81656;SDS011;71067;51.482;-0.580;2024-03-17T04:02:43;18.40;;;9.10;;
81656;SDS011;71067;51.482;-0.580;2024-03-17T04:05:09;20.05;;;9.57;;
81656;SDS011;71067;51.482;-0.580;2024-03-17T04:07:35;18.73;;;9.48;;
81656;SDS011;71067;51.482;-0.580;2024-03-17T04:10:01;21.55;;;9.02;;
81656;SDS011;71067;51.482;-0.580;2024-03-17T04:12:27;18.20;;;9.38;;
81656;SDS011;71067;51.482;-0.580;2024-03-17T04:14:53;19.55;;;8.95;;
81656;SDS011;71067;51.482;-0.580;2024-03-17T04:17:20;16.95;;;8.90;;
81656;SDS011;71067;51.482;-0.580;2024-03-17T04:19:48;16.45;;;8.02;;
81656;SDS011;71067;51.482;-0.580;2024-03-17T04:22:16;16.90;;;7.93;;
81656;SDS011;71067;51.482;-0.580;2024-03-17T04:24:46;18.50;;;8.85;;
81656;SDS011;71067;51.482;-0.580;2024-03-17T04:27:12;14.77;;;7.75;;
81656;SDS011;71067;51.482;-0.580;2024-03-17T04:29:40;17.63;;;8.05;;
81656;SDS011;71067;51.482;-0.580;2024-03-17T04:32:06;14.57;;;7.63;;
81656;SDS011;71067;51.482;-0.580;2024-03-17T04:34:31;14.93;;;6.93;;
81656;SDS011;71067;51.482;-0.580;2024-03-17T04:36:57;17.35;;;8.02;;
81656;SDS011;71067;51.482;-0.580;2024-03-17T04:39:23;15.20;;;7.15;;
81656;SDS011;71067;51.482;-0.580;2024-03-17T04:41:49;15.43;;;6.50;;
81656;SDS011;71067;51.482;-0.580;2024-03-17T04:44:15;18.90;;;7.93;;
81656;SDS011;71067;51.482;-0.580;2024-03-17T04:46:41;14.38;;;6.88;;
81656;SDS011;71067;51.482;-0.580;2024-03-17T04:49:06;16.50;;;7.07;;
81656;SDS011;71067;51.482;-0.580;2024-03-17T04:51:31;14.25;;;7.40;;
81656;SDS011;71067;51.482;-0.580;2024-03-17T04:54:00;14.23;;;7.03;;
81656;SDS011;71067;51.482;-0.580;2024-03-17T04:56:28;15.38;;;6.43;;
81656;SDS011;71067;51.482;-0.580;2024-03-17T04:58:53;17.42;;;6.80;;
81656;SDS011;71067;51.482;-0.580;2024-03-17T05:01:19;15.35;;;6.47;;
81656;SDS011;71067;51.482;-0.580;2024-03-17T05:03:45;15.80;;;6.88;;
81656;SDS011;71067;51.482;-0.580;2024-03-17T05:06:10;14.27;;;6.57;;
81656;SDS011;71067;51.482;-0.580;2024-03-17T05:08:36;12.68;;;6.10;;
81656;SDS011;71067;51.482;-0.580;2024-03-17T05:11:02;12.05;;;6.28;;
81656;SDS011;71067;51.482;-0.580;2024-03-17T05:13:32;15.68;;;6.40;;
81656;SDS011;71067;51.482;-0.580;2024-03-17T05:15:59;11.65;;;6.07;;
81656;SDS011;71067;51.482;-0.580;2024-03-17T05:18:25;12.65;;;6.03;;
81656;SDS011;71067;51.482;-0.580;2024-03-17T05:20:59;13.15;;;5.93;;
81656;SDS011;71067;51.482;-0.580;2024-03-17T05:23:26;14.30;;;5.72;;
81656;SDS011;71067;51.482;-0.580;2024-03-17T05:25:52;15.25;;;6.72;;
81656;SDS011;71067;51.482;-0.580;2024-03-17T05:28:18;13.68;;;5.80;;
81656;SDS011;71067;51.482;-0.580;2024-03-17T05:30:43;10.63;;;6.05;;
81656;SDS011;71067;51.482;-0.580;2024-03-17T05:33:09;16.48;;;6.45;;
81656;SDS011;71067;51.482;-0.580;2024-03-17T05:35:35;14.77;;;6.43;;
81656;SDS011;71067;51.482;-0.580;2024-03-17T05:38:00;17.13;;;5.65;;
81656;SDS011;71067;51.482;-0.580;2024-03-17T05:40:25;15.77;;;6.28;;
81656;SDS011;71067;51.482;-0.580;2024-03-17T05:42:51;16.35;;;6.15;;
81656;SDS011;71067;51.482;-0.580;2024-03-17T05:45:16;15.30;;;5.55;;
81656;SDS011;71067;51.482;-0.580;2024-03-17T05:47:42;15.35;;;6.18;;
81656;SDS011;71067;51.482;-0.580;2024-03-17T05:50:07;16.45;;;6.40;;
81656;SDS011;71067;51.482;-0.580;2024-03-17T05:52:34;14.57;;;5.68;;
81656;SDS011;71067;51.482;-0.580;2024-03-17T05:54:59;15.85;;;6.25;;
81656;SDS011;71067;51.482;-0.580;2024-03-17T05:57:25;16.35;;;6.00;;
81656;SDS011;71067;51.482;-0.580;2024-03-17T05:59:51;17.27;;;5.95;;
81656;SDS011;71067;51.482;-0.580;2024-03-17T06:02:16;17.40;;;6.63;;
81656;SDS011;71067;51.482;-0.580;2024-03-17T06:04:43;16.95;;;6.55;;
81656;SDS011;71067;51.482;-0.580;2024-03-17T06:07:09;17.85;;;6.38;;
81656;SDS011;71067;51.482;-0.580;2024-03-17T06:09:34;16.08;;;7.03;;
81656;SDS011;71067;51.482;-0.580;2024-03-17T06:12:00;20.83;;;6.85;;
81656;SDS011;71067;51.482;-0.580;2024-03-17T06:14:25;21.13;;;6.63;;
81656;SDS011;71067;51.482;-0.580;2024-03-17T06:16:50;18.02;;;6.80;;
81656;SDS011;71067;51.482;-0.580;2024-03-17T06:19:16;13.80;;;5.82;;
81656;SDS011;71067;51.482;-0.580;2024-03-17T06:21:41;17.70;;;6.07;;
81656;SDS011;71067;51.482;-0.580;2024-03-17T06:24:07;17.17;;;7.00;;
81656;SDS011;71067;51.482;-0.580;2024-03-17T06:26:32;14.30;;;6.05;;
81656;SDS011;71067;51.482;-0.580;2024-03-17T06:29:00;16.63;;;6.63;;
81656;SDS011;71067;51.482;-0.580;2024-03-17T06:31:25;16.13;;;6.63;;
81656;SDS011;71067;51.482;-0.580;2024-03-17T06:33:51;20.08;;;6.55;;
81656;SDS011;71067;51.482;-0.580;2024-03-17T06:36:16;18.02;;;6.93;;
81656;SDS011;71067;51.482;-0.580;2024-03-17T06:38:42;17.92;;;6.32;;
81656;SDS011;71067;51.482;-0.580;2024-03-17T06:41:11;16.20;;;6.57;;
81656;SDS011;71067;51.482;-0.580;2024-03-17T06:43:38;15.13;;;6.22;;
81656;SDS011;71067;51.482;-0.580;2024-03-17T06:46:04;15.15;;;6.40;;
81656;SDS011;71067;51.482;-0.580;2024-03-17T06:48:30;16.60;;;6.17;;
81656;SDS011;71067;51.482;-0.580;2024-03-17T06:50:55;15.82;;;6.32;;
81656;SDS011;71067;51.482;-0.580;2024-03-17T06:53:21;20.13;;;7.10;;
81656;SDS011;71067;51.482;-0.580;2024-03-17T06:55:54;17.17;;;6.68;;
81656;SDS011;71067;51.482;-0.580;2024-03-17T06:58:20;16.25;;;6.40;;
81656;SDS011;71067;51.482;-0.580;2024-03-17T07:03:23;18.27;;;7.28;;
81656;SDS011;71067;51.482;-0.580;2024-03-17T07:05:53;15.05;;;6.53;;
81656;SDS011;71067;51.482;-0.580;2024-03-17T07:08:19;12.88;;;6.95;;
81656;SDS011;71067;51.482;-0.580;2024-03-17T07:13:42;17.60;;;6.30;;
81656;SDS011;71067;51.482;-0.580;2024-03-17T07:16:08;16.15;;;7.05;;
81656;SDS011;71067;51.482;-0.580;2024-03-17T07:18:34;17.10;;;6.35;;
81656;SDS011;71067;51.482;-0.580;2024-03-17T07:21:03;16.05;;;6.03;;
81656;SDS011;71067;51.482;-0.580;2024-03-17T07:23:29;12.75;;;6.07;;
81656;SDS011;71067;51.482;-0.580;2024-03-17T07:25:55;18.52;;;6.80;;
81656;SDS011;71067;51.482;-0.580;2024-03-17T07:28:22;20.23;;;7.40;;
81656;SDS011;71067;51.482;-0.580;2024-03-17T07:30:49;18.17;;;6.40;;
81656;SDS011;71067;51.482;-0.580;2024-03-17T07:33:14;15.63;;;6.07;;
81656;SDS011;71067;51.482;-0.580;2024-03-17T07:35:50;16.10;;;5.80;;
81656;SDS011;71067;51.482;-0.580;2024-03-17T07:38:20;15.95;;;5.70;;
81656;SDS011;71067;51.482;-0.580;2024-03-17T07:40:54;18.25;;;6.00;;
81656;SDS011;71067;51.482;-0.580;2024-03-17T07:43:24;18.75;;;5.80;;
81656;SDS011;71067;51.482;-0.580;2024-03-17T07:46:00;13.35;;;5.40;;
81656;SDS011;71067;51.482;-0.580;2024-03-17T07:48:26;15.13;;;5.25;;
81656;SDS011;71067;51.482;-0.580;2024-03-17T07:50:57;12.15;;;5.13;;
81656;SDS011;71067;51.482;-0.580;2024-03-17T07:53:23;10.80;;;4.88;;
81656;SDS011;71067;51.482;-0.580;2024-03-17T07:55:59;14.93;;;5.35;;
81656;SDS011;71067;51.482;-0.580;2024-03-17T07:58:37;11.10;;;4.88;;
81656;SDS011;71067;51.482;-0.580;2024-03-17T08:01:08;15.10;;;5.10;;
81656;SDS011;71067;51.482;-0.580;2024-03-17T08:03:36;8.85;;;4.38;;
81656;SDS011;71067;51.482;-0.580;2024-03-17T08:06:02;12.30;;;4.50;;
81656;SDS011;71067;51.482;-0.580;2024-03-17T08:08:29;10.93;;;4.63;;
81656;SDS011;71067;51.482;-0.580;2024-03-17T08:10:55;11.10;;;4.60;;
81656;SDS011;71067;51.482;-0.580;2024-03-17T08:13:20;11.75;;;4.43;;
81656;SDS011;71067;51.482;-0.580;2024-03-17T08:15:47;8.30;;;4.00;;
81656;SDS011;71067;51.482;-0.580;2024-03-17T08:18:20;10.98;;;3.60;;
81656;SDS011;71067;51.482;-0.580;2024-03-17T08:20:45;9.38;;;3.95;;
81656;SDS011;71067;51.482;-0.580;2024-03-17T08:23:11;11.07;;;3.90;;
81656;SDS011;71067;51.482;-0.580;2024-03-17T08:25:37;10.98;;;3.90;;
81656;SDS011;71067;51.482;-0.580;2024-03-17T08:28:03;12.02;;;3.28;;
81656;SDS011;71067;51.482;-0.580;2024-03-17T08:30:29;7.68;;;3.08;;
81656;SDS011;71067;51.482;-0.580;2024-03-17T08:32:57;6.70;;;3.17;;
81656;SDS011;71067;51.482;-0.580;2024-03-17T08:35:23;8.32;;;3.13;;
81656;SDS011;71067;51.482;-0.580;2024-03-17T08:37:49;7.43;;;2.90;;
81656;SDS011;71067;51.482;-0.580;2024-03-17T08:40:16;11.07;;;3.40;;
81656;SDS011;71067;51.482;-0.580;2024-03-17T08:42:41;8.57;;;2.70;;
81656;SDS011;71067;51.482;-0.580;2024-03-17T08:45:07;6.70;;;2.78;;
81656;SDS011;71067;51.482;-0.580;2024-03-17T08:47:33;6.30;;;2.47;;
81656;SDS011;71067;51.482;-0.580;2024-03-17T08:49:58;8.38;;;2.80;;
81656;SDS011;71067;51.482;-0.580;2024-03-17T08:52:29;6.78;;;2.47;;
81656;SDS011;71067;51.482;-0.580;2024-03-17T08:54:57;7.78;;;3.10;;
81656;SDS011;71067;51.482;-0.580;2024-03-17T08:57:22;7.95;;;2.20;;
81656;SDS011;71067;51.482;-0.580;2024-03-17T08:59:48;7.60;;;2.95;;
81656;SDS011;71067;51.482;-0.580;2024-03-17T09:02:14;5.38;;;2.33;;
81656;SDS011;71067;51.482;-0.580;2024-03-17T09:04:40;6.65;;;2.30;;
81656;SDS011;71067;51.482;-0.580;2024-03-17T09:07:06;7.22;;;1.90;;
81656;SDS011;71067;51.482;-0.580;2024-03-17T09:09:31;7.25;;;2.40;;
81656;SDS011;71067;51.482;-0.580;2024-03-17T09:11:56;6.53;;;2.63;;
81656;SDS011;71067;51.482;-0.580;2024-03-17T09:14:22;4.78;;;1.90;;
81656;SDS011;71067;51.482;-0.580;2024-03-17T09:16:48;5.47;;;1.95;;
81656;SDS011;71067;51.482;-0.580;2024-03-17T09:19:13;5.30;;;1.70;;
81656;SDS011;71067;51.482;-0.580;2024-03-17T09:21:38;5.72;;;1.80;;
81656;SDS011;71067;51.482;-0.580;2024-03-17T09:24:05;6.15;;;1.80;;
81656;SDS011;71067;51.482;-0.580;2024-03-17T09:26:32;6.28;;;1.63;;
81656;SDS011;71067;51.482;-0.580;2024-03-17T09:28:59;8.15;;;2.03;;
81656;SDS011;71067;51.482;-0.580;2024-03-17T09:31:25;7.57;;;1.90;;
81656;SDS011;71067;51.482;-0.580;2024-03-17T09:33:51;4.88;;;1.70;;
81656;SDS011;71067;51.482;-0.580;2024-03-17T09:36:16;5.57;;;1.70;;
81656;SDS011;71067;51.482;-0.580;2024-03-17T09:38:43;7.47;;;1.73;;
81656;SDS011;71067;51.482;-0.580;2024-03-17T09:41:15;4.13;;;1.70;;
81656;SDS011;71067;51.482;-0.580;2024-03-17T09:43:46;5.80;;;1.55;;
81656;SDS011;71067;51.482;-0.580;2024-03-17T09:46:12;6.72;;;1.48;;
81656;SDS011;71067;51.482;-0.580;2024-03-17T09:48:39;7.00;;;1.77;;
81656;SDS011;71067;51.482;-0.580;2024-03-17T09:51:05;4.72;;;1.60;;
81656;SDS011;71067;51.482;-0.580;2024-03-17T09:53:31;6.18;;;1.50;;
81656;SDS011;71067;51.482;-0.580;2024-03-17T09:58:44;3.90;;;1.27;;
81656;SDS011;71067;51.482;-0.580;2024-03-17T10:01:10;4.05;;;1.40;;
81656;SDS011;71067;51.482;-0.580;2024-03-17T10:03:50;4.20;;;1.38;;
81656;SDS011;71067;51.482;-0.580;2024-03-17T10:06:29;3.13;;;0.95;;
81656;SDS011;71067;51.482;-0.580;2024-03-17T10:08:58;2.45;;;1.05;;
81656;SDS011;71067;51.482;-0.580;2024-03-17T10:11:41;4.00;;;1.10;;
81656;SDS011;71067;51.482;-0.580;2024-03-17T10:14:07;2.85;;;1.10;;
81656;SDS011;71067;51.482;-0.580;2024-03-17T10:16:34;3.55;;;1.02;;
81656;SDS011;71067;51.482;-0.580;2024-03-17T10:19:06;4.53;;;1.10;;
81656;SDS011;71067;51.482;-0.580;2024-03-17T10:21:35;2.97;;;1.10;;
81656;SDS011;71067;51.482;-0.580;2024-03-17T10:24:19;2.42;;;1.00;;
81656;SDS011;71067;51.482;-0.580;2024-03-17T10:34:22;3.05;;;0.90;;
81656;SDS011;71067;51.482;-0.580;2024-03-17T10:36:52;2.35;;;0.80;;
81656;SDS011;71067;51.482;-0.580;2024-03-17T10:39:39;2.33;;;1.00;;
81656;SDS011;71067;51.482;-0.580;2024-03-17T10:42:06;2.47;;;0.98;;
81656;SDS011;71067;51.482;-0.580;2024-03-17T10:44:39;1.92;;;0.80;;
81656;SDS011;71067;51.482;-0.580;2024-03-17T10:47:07;1.70;;;0.73;;
81656;SDS011;71067;51.482;-0.580;2024-03-17T10:49:38;3.20;;;1.27;;
81656;SDS011;71067;51.482;-0.580;2024-03-17T10:52:04;3.45;;;1.13;;
81656;SDS011;71067;51.482;-0.580;2024-03-17T10:54:31;1.92;;;0.90;;
81656;SDS011;71067;51.482;-0.580;2024-03-17T10:59:47;2.20;;;1.30;;
81656;SDS011;71067;51.482;-0.580;2024-03-17T11:02:22;3.10;;;1.30;;
81656;SDS011;71067;51.482;-0.580;2024-03-17T11:04:53;2.95;;;1.10;;
81656;SDS011;71067;51.482;-0.580;2024-03-17T11:07:21;3.25;;;1.38;;
81656;SDS011;71067;51.482;-0.580;2024-03-17T11:09:47;2.50;;;1.35;;
81656;SDS011;71067;51.482;-0.580;2024-03-17T11:17:52;3.05;;;1.90;;
81656;SDS011;71067;51.482;-0.580;2024-03-17T11:20:23;3.47;;;1.90;;
81656;SDS011;71067;51.482;-0.580;2024-03-17T11:22:50;3.78;;;2.22;;
81656;SDS011;71067;51.482;-0.580;2024-03-17T11:38:54;5.63;;;2.60;;
81656;SDS011;71067;51.482;-0.580;2024-03-17T11:41:42;4.95;;;2.47;;
81656;SDS011;71067;51.482;-0.580;2024-03-17T11:46:56;5.20;;;2.30;;
81656;SDS011;71067;51.482;-0.580;2024-03-17T11:49:28;3.65;;;2.30;;
81656;SDS011;71067;51.482;-0.580;2024-03-17T11:51:56;4.28;;;2.50;;
81656;SDS011;71067;51.482;-0.580;2024-03-17T11:54:25;3.97;;;2.30;;
81656;SDS011;71067;51.482;-0.580;2024-03-17T11:56:55;3.25;;;2.13;;
81656;SDS011;71067;51.482;-0.580;2024-03-17T11:59:25;4.32;;;2.30;;
81656;SDS011;71067;51.482;-0.580;2024-03-17T12:01:50;3.70;;;2.38;;
81656;SDS011;71067;51.482;-0.580;2024-03-17T12:04:19;5.13;;;2.42;;
81656;SDS011;71067;51.482;-0.580;2024-03-17T12:06:49;3.58;;;2.13;;
81656;SDS011;71067;51.482;-0.580;2024-03-17T12:09:20;3.25;;;1.98;;
81656;SDS011;71067;51.482;-0.580;2024-03-17T12:12:32;3.30;;;1.67;;
81656;SDS011;71067;51.482;-0.580;2024-03-17T12:14:41;3.17;;;1.40;;
81656;SDS011;71067;51.482;-0.580;2024-03-17T12:17:07;2.90;;;1.45;;
81656;SDS011;71067;51.482;-0.580;2024-03-17T12:19:34;2.65;;;1.60;;
81656;SDS011;71067;51.482;-0.580;2024-03-17T12:22:01;4.38;;;1.45;;
81656;SDS011;71067;51.482;-0.580;2024-03-17T12:24:28;2.92;;;1.17;;
81656;SDS011;71067;51.482;-0.580;2024-03-17T12:27:01;3.25;;;1.10;;
81656;SDS011;71067;51.482;-0.580;2024-03-17T12:29:36;2.63;;;1.23;;
81656;SDS011;71067;51.482;-0.580;2024-03-17T12:32:26;2.00;;;1.15;;
81656;SDS011;71067;51.482;-0.580;2024-03-17T12:34:57;1.95;;;1.00;;
81656;SDS011;71067;51.482;-0.580;2024-03-17T12:37:24;3.53;;;1.00;;
81656;SDS011;71067;51.482;-0.580;2024-03-17T12:39:56;1.95;;;0.85;;
81656;SDS011;71067;51.482;-0.580;2024-03-17T12:42:27;3.50;;;1.08;;
81656;SDS011;71067;51.482;-0.580;2024-03-17T12:44:54;2.10;;;0.85;;
81656;SDS011;71067;51.482;-0.580;2024-03-17T12:52:22;2.35;;;0.82;;
81656;SDS011;71067;51.482;-0.580;2024-03-17T12:57:46;2.55;;;0.73;;
81656;SDS011;71067;51.482;-0.580;2024-03-17T13:00:31;3.80;;;1.00;;
81656;SDS011;71067;51.482;-0.580;2024-03-17T13:02:58;2.28;;;0.93;;
81656;SDS011;71067;51.482;-0.580;2024-03-17T13:05:24;2.58;;;1.02;;
81656;SDS011;71067;51.482;-0.580;2024-03-17T13:07:49;5.65;;;0.88;;
81656;SDS011;71067;51.482;-0.580;2024-03-17T13:10:16;2.15;;;0.90;;
81656;SDS011;71067;51.482;-0.580;2024-03-17T13:12:43;2.35;;;0.77;;
81656;SDS011;71067;51.482;-0.580;2024-03-17T13:15:10;2.03;;;0.95;;
81656;SDS011;71067;51.482;-0.580;2024-03-17T13:17:37;3.80;;;1.00;;
81656;SDS011;71067;51.482;-0.580;2024-03-17T13:20:03;1.63;;;0.77;;
81656;SDS011;71067;51.482;-0.580;2024-03-17T13:22:29;1.55;;;0.75;;
81656;SDS011;71067;51.482;-0.580;2024-03-17T13:24:54;2.45;;;0.98;;
81656;SDS011;71067;51.482;-0.580;2024-03-17T13:27:20;2.53;;;1.00;;
81656;SDS011;71067;51.482;-0.580;2024-03-17T13:29:48;2.15;;;0.75;;
81656;SDS011;71067;51.482;-0.580;2024-03-17T13:32:14;2.72;;;0.90;;
81656;SDS011;71067;51.482;-0.580;2024-03-17T13:34:42;2.33;;;0.70;;
81656;SDS011;71067;51.482;-0.580;2024-03-17T13:37:07;1.73;;;0.70;;
81656;SDS011;71067;51.482;-0.580;2024-03-17T13:39:33;1.67;;;0.80;;
81656;SDS011;71067;51.482;-0.580;2024-03-17T13:41:59;2.58;;;0.98;;
81656;SDS011;71067;51.482;-0.580;2024-03-17T13:44:32;2.97;;;0.98;;
81656;SDS011;71067;51.482;-0.580;2024-03-17T13:46:58;2.17;;;0.70;;
81656;SDS011;71067;51.482;-0.580;2024-03-17T13:49:24;2.53;;;0.73;;
81656;SDS011;71067;51.482;-0.580;2024-03-17T13:51:51;1.20;;;0.60;;
81656;SDS011;71067;51.482;-0.580;2024-03-17T13:54:17;3.95;;;1.08;;
81656;SDS011;71067;51.482;-0.580;2024-03-17T13:56:43;3.25;;;0.82;;
81656;SDS011;71067;51.482;-0.580;2024-03-17T13:59:11;1.88;;;0.80;;
81656;SDS011;71067;51.482;-0.580;2024-03-17T14:01:37;3.00;;;0.70;;
81656;SDS011;71067;51.482;-0.580;2024-03-17T14:04:02;2.58;;;0.77;;
81656;SDS011;71067;51.482;-0.580;2024-03-17T14:06:28;1.83;;;0.80;;
81656;SDS011;71067;51.482;-0.580;2024-03-17T14:08:53;2.07;;;0.80;;
81656;SDS011;71067;51.482;-0.580;2024-03-17T14:11:18;3.27;;;0.80;;
81656;SDS011;71067;51.482;-0.580;2024-03-17T14:13:44;3.20;;;0.65;;
81656;SDS011;71067;51.482;-0.580;2024-03-17T14:16:09;3.13;;;0.97;;
81656;SDS011;71067;51.482;-0.580;2024-03-17T14:18:36;1.75;;;0.80;;
81656;SDS011;71067;51.482;-0.580;2024-03-17T14:21:01;2.08;;;0.65;;
81656;SDS011;71067;51.482;-0.580;2024-03-17T14:23:26;5.45;;;0.98;;
81656;SDS011;71067;51.482;-0.580;2024-03-17T14:25:55;3.35;;;1.00;;
81656;SDS011;71067;51.482;-0.580;2024-03-17T14:28:20;1.65;;;0.60;;
81656;SDS011;71067;51.482;-0.580;2024-03-17T14:30:47;2.92;;;0.70;;
81656;SDS011;71067;51.482;-0.580;2024-03-17T14:33:12;3.03;;;0.80;;
81656;SDS011;71067;51.482;-0.580;2024-03-17T14:35:37;1.67;;;0.70;;
81656;SDS011;71067;51.482;-0.580;2024-03-17T14:38:03;3.25;;;0.90;;
81656;SDS011;71067;51.482;-0.580;2024-03-17T14:40:29;1.70;;;0.80;;
81656;SDS011;71067;51.482;-0.580;2024-03-17T14:42:55;1.80;;;0.70;;
81656;SDS011;71067;51.482;-0.580;2024-03-17T14:45:21;2.70;;;0.80;;
81656;SDS011;71067;51.482;-0.580;2024-03-17T14:50:17;3.65;;;0.80;;
81656;SDS011;71067;51.482;-0.580;2024-03-17T14:52:42;3.45;;;0.80;;
81656;SDS011;71067;51.482;-0.580;2024-03-17T14:55:09;2.65;;;0.70;;
81656;SDS011;71067;51.482;-0.580;2024-03-17T14:57:35;2.15;;;0.75;;
81656;SDS011;71067;51.482;-0.580;2024-03-17T15:00:03;4.10;;;0.77;;
81656;SDS011;71067;51.482;-0.580;2024-03-17T15:02:38;2.08;;;0.80;;
81656;SDS011;71067;51.482;-0.580;2024-03-17T15:05:04;1.73;;;0.63;;
81656;SDS011;71067;51.482;-0.580;2024-03-17T15:07:31;4.70;;;0.80;;
81656;SDS011;71067;51.482;-0.580;2024-03-17T15:09:56;1.42;;;0.60;;
81656;SDS011;71067;51.482;-0.580;2024-03-17T15:12:22;2.83;;;0.60;;
81656;SDS011;71067;51.482;-0.580;2024-03-17T15:14:47;2.33;;;0.65;;
81656;SDS011;71067;51.482;-0.580;2024-03-17T15:17:13;2.47;;;0.70;;
81656;SDS011;71067;51.482;-0.580;2024-03-17T15:19:40;3.22;;;0.80;;